La Guardia Airport New York US
ICAO: KLGA
IATA: LGA
Category: Large
Scheduled Services: Yes

Elevation: 21 ft
TransAlt. 18000 ft.

Airport Communications:
NEW YORK APP:118
NEW YORK APP:132.7
ATIS:125.95
CLNC DEL:121.875
NEW YORK DEP:120.4
GND:121.7
TWR:118.7
UNICOM:122.95

KLGA Zoom In..

If you have problems with the map follow the link
https://www.worldairports.se/pages/airport.php?
ICAO=KLGA

Runways:

(A) RW 04 length 7001 ft width 150 ft
ILS 110.50 / hdg 44

(B) RW 13 length 7003 ft width 150 ft
ILS 108.50 / hdg 134

(C) RW 22 length 7001 ft width 150 ft
ILS 110.50 / hdg 224

(D) RW 31 length 7003 ft width 150 ft
LOC 108.50 / hdg 314

Location; KLGA
Day. 29 / Time. 11.51 Zulu
* Altimeter: 30.02
* Temperature: 01° c. 33.8°f.
* Wind from: 320° Speed 15 kn.
Dewpoint: -08° c.
Visibility: 10 Statute Miles.
Clouds: Overcast 4000 ft.

KLGA 291151Z 32015KT 10SM OVC040 01/M08 A3002 RMK AO2 SLP166 T00061083 10022 20006 53018


Wind From 320°
Speed 15 kn.

 
 
jpsmedia worldairports.se 2020   terms of use